sensor_id;sensor_type;location;lat;lon;timestamp;temperature;humidity
16736;DHT22;17990;49.548;9.730;2024-02-26T00:01:04;3.90;99.90
16736;DHT22;17990;49.548;9.730;2024-02-26T00:03:31;4.00;99.90
16736;DHT22;17990;49.548;9.730;2024-02-26T00:06:01;4.00;99.90
16736;DHT22;17990;49.548;9.730;2024-02-26T00:08:28;4.00;99.90
16736;DHT22;17990;49.548;9.730;2024-02-26T00:10:54;4.10;99.90
16736;DHT22;17990;49.548;9.730;2024-02-26T00:13:21;4.10;99.90
16736;DHT22;17990;49.548;9.730;2024-02-26T00:15:48;4.00;99.90
16736;DHT22;17990;49.548;9.730;2024-02-26T00:18:16;4.10;99.90
16736;DHT22;17990;49.548;9.730;2024-02-26T00:20:43;4.20;99.90
16736;DHT22;17990;49.548;9.730;2024-02-26T00:23:09;4.20;99.90
16736;DHT22;17990;49.548;9.730;2024-02-26T00:25:36;4.20;99.90
16736;DHT22;17990;49.548;9.730;2024-02-26T00:28:03;4.30;99.90
16736;DHT22;17990;49.548;9.730;2024-02-26T00:30:30;4.30;99.90
16736;DHT22;17990;49.548;9.730;2024-02-26T00:32:57;4.30;99.90
16736;DHT22;17990;49.548;9.730;2024-02-26T00:35:25;4.30;99.90
16736;DHT22;17990;49.548;9.730;2024-02-26T00:37:52;4.40;99.90
16736;DHT22;17990;49.548;9.730;2024-02-26T00:40:19;4.30;99.90
16736;DHT22;17990;49.548;9.730;2024-02-26T00:42:45;4.30;99.90
16736;DHT22;17990;49.548;9.730;2024-02-26T00:45:13;4.30;99.90
16736;DHT22;17990;49.548;9.730;2024-02-26T00:47:41;4.30;99.90
16736;DHT22;17990;49.548;9.730;2024-02-26T00:50:10;4.40;99.90
16736;DHT22;17990;49.548;9.730;2024-02-26T00:52:38;4.40;99.90
16736;DHT22;17990;49.548;9.730;2024-02-26T00:55:05;4.40;99.90
16736;DHT22;17990;49.548;9.730;2024-02-26T00:57:32;4.40;99.90
16736;DHT22;17990;49.548;9.730;2024-02-26T00:59:59;4.40;99.90
16736;DHT22;17990;49.548;9.730;2024-02-26T01:02:26;4.40;99.90
16736;DHT22;17990;49.548;9.730;2024-02-26T01:04:52;4.40;99.90
16736;DHT22;17990;49.548;9.730;2024-02-26T01:07:19;4.40;99.90
16736;DHT22;17990;49.548;9.730;2024-02-26T01:09:47;4.40;99.90
16736;DHT22;17990;49.548;9.730;2024-02-26T01:12:14;4.40;99.90
16736;DHT22;17990;49.548;9.730;2024-02-26T01:14:41;4.50;99.90
16736;DHT22;17990;49.548;9.730;2024-02-26T01:17:07;4.50;99.90
16736;DHT22;17990;49.548;9.730;2024-02-26T01:19:34;4.50;99.90
16736;DHT22;17990;49.548;9.730;2024-02-26T01:22:01;4.50;99.90
16736;DHT22;17990;49.548;9.730;2024-02-26T01:24:28;4.50;99.90
16736;DHT22;17990;49.548;9.730;2024-02-26T01:26:56;4.60;99.90
16736;DHT22;17990;49.548;9.730;2024-02-26T01:29:23;4.60;99.90
16736;DHT22;17990;49.548;9.730;2024-02-26T01:31:50;4.60;99.90
16736;DHT22;17990;49.548;9.730;2024-02-26T01:34:16;4.60;99.90
16736;DHT22;17990;49.548;9.730;2024-02-26T01:36:44;4.60;99.90
16736;DHT22;17990;49.548;9.730;2024-02-26T01:39:10;4.50;99.90
16736;DHT22;17990;49.548;9.730;2024-02-26T01:41:38;4.50;99.90
16736;DHT22;17990;49.548;9.730;2024-02-26T01:44:06;4.50;99.90
16736;DHT22;17990;49.548;9.730;2024-02-26T01:46:34;4.50;99.90
16736;DHT22;17990;49.548;9.730;2024-02-26T01:49:02;4.50;99.90
16736;DHT22;17990;49.548;9.730;2024-02-26T01:51:30;4.50;99.90
16736;DHT22;17990;49.548;9.730;2024-02-26T01:53:58;4.60;99.90
16736;DHT22;17990;49.548;9.730;2024-02-26T01:56:25;4.60;99.90
16736;DHT22;17990;49.548;9.730;2024-02-26T01:58:56;4.70;99.90
16736;DHT22;17990;49.548;9.730;2024-02-26T02:01:25;4.70;99.90
16736;DHT22;17990;49.548;9.730;2024-02-26T02:03:54;4.70;99.90
16736;DHT22;17990;49.548;9.730;2024-02-26T02:06:20;4.70;99.90
16736;DHT22;17990;49.548;9.730;2024-02-26T02:08:48;4.70;99.90
16736;DHT22;17990;49.548;9.730;2024-02-26T02:11:15;4.70;99.90
16736;DHT22;17990;49.548;9.730;2024-02-26T02:13:42;4.80;99.90
16736;DHT22;17990;49.548;9.730;2024-02-26T02:16:09;4.80;99.90
16736;DHT22;17990;49.548;9.730;2024-02-26T02:18:37;4.80;99.90
16736;DHT22;17990;49.548;9.730;2024-02-26T02:21:05;4.80;99.90
16736;DHT22;17990;49.548;9.730;2024-02-26T02:23:32;4.90;99.90
16736;DHT22;17990;49.548;9.730;2024-02-26T02:25:59;4.90;99.90
16736;DHT22;17990;49.548;9.730;2024-02-26T02:28:27;4.90;99.90
16736;DHT22;17990;49.548;9.730;2024-02-26T02:30:54;4.90;99.90
16736;DHT22;17990;49.548;9.730;2024-02-26T02:33:21;4.90;99.90
16736;DHT22;17990;49.548;9.730;2024-02-26T02:35:49;4.90;99.90
16736;DHT22;17990;49.548;9.730;2024-02-26T02:38:17;4.90;99.90
16736;DHT22;17990;49.548;9.730;2024-02-26T02:40:44;4.90;99.90
16736;DHT22;17990;49.548;9.730;2024-02-26T02:43:11;4.90;99.90
16736;DHT22;17990;49.548;9.730;2024-02-26T02:45:37;4.90;99.90
16736;DHT22;17990;49.548;9.730;2024-02-26T02:48:04;4.90;99.90
16736;DHT22;17990;49.548;9.730;2024-02-26T02:50:31;4.90;99.90
16736;DHT22;17990;49.548;9.730;2024-02-26T02:52:58;4.90;99.90
16736;DHT22;17990;49.548;9.730;2024-02-26T02:55:27;4.80;99.90
16736;DHT22;17990;49.548;9.730;2024-02-26T02:57:54;4.80;99.90
16736;DHT22;17990;49.548;9.730;2024-02-26T03:00:20;4.80;99.90
16736;DHT22;17990;49.548;9.730;2024-02-26T03:02:48;4.80;99.90
16736;DHT22;17990;49.548;9.730;2024-02-26T03:05:16;4.70;99.90
16736;DHT22;17990;49.548;9.730;2024-02-26T03:07:43;4.70;99.90
16736;DHT22;17990;49.548;9.730;2024-02-26T03:10:09;4.70;99.90
16736;DHT22;17990;49.548;9.730;2024-02-26T03:12:37;4.60;99.90
16736;DHT22;17990;49.548;9.730;2024-02-26T03:15:04;4.50;99.90
16736;DHT22;17990;49.548;9.730;2024-02-26T03:17:30;4.40;99.90
16736;DHT22;17990;49.548;9.730;2024-02-26T03:19:57;4.40;99.90
16736;DHT22;17990;49.548;9.730;2024-02-26T03:22:24;4.40;99.90
16736;DHT22;17990;49.548;9.730;2024-02-26T03:24:50;4.50;99.90
16736;DHT22;17990;49.548;9.730;2024-02-26T03:27:17;4.40;99.90
16736;DHT22;17990;49.548;9.730;2024-02-26T03:29:45;4.40;99.90
16736;DHT22;17990;49.548;9.730;2024-02-26T03:32:13;4.40;99.90
16736;DHT22;17990;49.548;9.730;2024-02-26T03:34:40;4.40;99.90
16736;DHT22;17990;49.548;9.730;2024-02-26T03:37:06;4.40;99.90
16736;DHT22;17990;49.548;9.730;2024-02-26T03:39:35;4.50;99.90
16736;DHT22;17990;49.548;9.730;2024-02-26T03:42:02;4.50;99.90
16736;DHT22;17990;49.548;9.730;2024-02-26T03:44:29;4.50;99.90
16736;DHT22;17990;49.548;9.730;2024-02-26T03:46:57;4.50;99.90
16736;DHT22;17990;49.548;9.730;2024-02-26T03:49:24;4.50;99.90
16736;DHT22;17990;49.548;9.730;2024-02-26T03:51:51;4.40;99.90
16736;DHT22;17990;49.548;9.730;2024-02-26T03:54:17;4.50;99.90
16736;DHT22;17990;49.548;9.730;2024-02-26T03:56:44;4.50;99.90
16736;DHT22;17990;49.548;9.730;2024-02-26T03:59:11;4.50;99.90
16736;DHT22;17990;49.548;9.730;2024-02-26T04:01:37;4.50;99.90
16736;DHT22;17990;49.548;9.730;2024-02-26T04:04:06;4.50;99.90
16736;DHT22;17990;49.548;9.730;2024-02-26T04:06:32;4.60;99.90
16736;DHT22;17990;49.548;9.730;2024-02-26T04:08:59;4.60;99.90
16736;DHT22;17990;49.548;9.730;2024-02-26T04:11:29;4.50;99.90
16736;DHT22;17990;49.548;9.730;2024-02-26T04:13:56;4.50;99.90
16736;DHT22;17990;49.548;9.730;2024-02-26T04:16:22;4.50;99.90
16736;DHT22;17990;49.548;9.730;2024-02-26T04:18:49;4.50;99.90
16736;DHT22;17990;49.548;9.730;2024-02-26T04:21:17;4.50;99.90
16736;DHT22;17990;49.548;9.730;2024-02-26T04:23:44;4.50;99.90
16736;DHT22;17990;49.548;9.730;2024-02-26T04:26:10;4.60;99.90
16736;DHT22;17990;49.548;9.730;2024-02-26T04:28:37;4.60;99.90
16736;DHT22;17990;49.548;9.730;2024-02-26T04:31:04;4.60;99.90
16736;DHT22;17990;49.548;9.730;2024-02-26T04:33:33;4.60;99.90
16736;DHT22;17990;49.548;9.730;2024-02-26T04:36:00;4.50;99.90
16736;DHT22;17990;49.548;9.730;2024-02-26T04:38:29;4.50;99.90
16736;DHT22;17990;49.548;9.730;2024-02-26T04:40:56;4.40;99.90
16736;DHT22;17990;49.548;9.730;2024-02-26T04:43:23;4.40;99.90
16736;DHT22;17990;49.548;9.730;2024-02-26T04:45:49;4.40;99.90
16736;DHT22;17990;49.548;9.730;2024-02-26T04:48:16;4.40;99.90
16736;DHT22;17990;49.548;9.730;2024-02-26T04:50:43;4.50;99.90
16736;DHT22;17990;49.548;9.730;2024-02-26T04:53:09;4.50;99.90
16736;DHT22;17990;49.548;9.730;2024-02-26T04:55:37;4.50;99.90
16736;DHT22;17990;49.548;9.730;2024-02-26T04:58:04;4.60;99.90
16736;DHT22;17990;49.548;9.730;2024-02-26T05:00:31;4.60;99.90
16736;DHT22;17990;49.548;9.730;2024-02-26T05:02:58;4.60;99.90
16736;DHT22;17990;49.548;9.730;2024-02-26T05:05:24;4.60;99.90
16736;DHT22;17990;49.548;9.730;2024-02-26T05:07:51;4.60;99.90
16736;DHT22;17990;49.548;9.730;2024-02-26T05:10:18;4.60;99.90
16736;DHT22;17990;49.548;9.730;2024-02-26T05:12:46;4.60;99.90
16736;DHT22;17990;49.548;9.730;2024-02-26T05:15:13;4.50;99.90
16736;DHT22;17990;49.548;9.730;2024-02-26T05:17:43;4.50;99.90
16736;DHT22;17990;49.548;9.730;2024-02-26T05:20:10;4.50;99.90
16736;DHT22;17990;49.548;9.730;2024-02-26T05:22:37;4.50;99.90
16736;DHT22;17990;49.548;9.730;2024-02-26T05:25:04;4.50;99.90
16736;DHT22;17990;49.548;9.730;2024-02-26T05:27:31;4.50;99.90
16736;DHT22;17990;49.548;9.730;2024-02-26T05:29:59;4.50;99.90
16736;DHT22;17990;49.548;9.730;2024-02-26T05:32:26;4.50;99.90
16736;DHT22;17990;49.548;9.730;2024-02-26T05:34:52;4.50;99.90
16736;DHT22;17990;49.548;9.730;2024-02-26T05:37:19;4.60;99.90
16736;DHT22;17990;49.548;9.730;2024-02-26T05:39:46;4.60;99.90
16736;DHT22;17990;49.548;9.730;2024-02-26T05:42:12;4.60;99.90
16736;DHT22;17990;49.548;9.730;2024-02-26T05:44:39;4.60;99.90
16736;DHT22;17990;49.548;9.730;2024-02-26T05:47:07;4.60;99.90
16736;DHT22;17990;49.548;9.730;2024-02-26T05:49:34;4.70;99.90
16736;DHT22;17990;49.548;9.730;2024-02-26T05:52:01;4.70;99.90
16736;DHT22;17990;49.548;9.730;2024-02-26T05:54:27;4.80;99.90
16736;DHT22;17990;49.548;9.730;2024-02-26T05:56:54;4.70;99.90
16736;DHT22;17990;49.548;9.730;2024-02-26T05:59:21;4.70;99.90
16736;DHT22;17990;49.548;9.730;2024-02-26T06:01:47;4.70;99.90
16736;DHT22;17990;49.548;9.730;2024-02-26T06:04:15;4.80;99.90
16736;DHT22;17990;49.548;9.730;2024-02-26T06:06:44;4.80;99.90
16736;DHT22;17990;49.548;9.730;2024-02-26T06:09:11;4.70;99.90
16736;DHT22;17990;49.548;9.730;2024-02-26T06:11:37;4.70;99.90
16736;DHT22;17990;49.548;9.730;2024-02-26T06:14:04;4.70;99.90
16736;DHT22;17990;49.548;9.730;2024-02-26T06:16:31;4.70;99.90
16736;DHT22;17990;49.548;9.730;2024-02-26T06:18:58;4.70;99.90
16736;DHT22;17990;49.548;9.730;2024-02-26T06:21:27;4.70;99.90
16736;DHT22;17990;49.548;9.730;2024-02-26T06:23:53;4.60;99.90
16736;DHT22;17990;49.548;9.730;2024-02-26T06:26:20;4.60;99.90
16736;DHT22;17990;49.548;9.730;2024-02-26T06:28:47;4.70;99.90
16736;DHT22;17990;49.548;9.730;2024-02-26T06:31:13;4.70;99.90
16736;DHT22;17990;49.548;9.730;2024-02-26T06:33:40;4.70;99.90
16736;DHT22;17990;49.548;9.730;2024-02-26T06:36:07;4.80;99.90
16736;DHT22;17990;49.548;9.730;2024-02-26T06:38:35;4.70;99.90
16736;DHT22;17990;49.548;9.730;2024-02-26T06:41:02;4.70;99.90
16736;DHT22;17990;49.548;9.730;2024-02-26T06:43:29;4.80;99.90
16736;DHT22;17990;49.548;9.730;2024-02-26T06:45:55;4.90;99.90
16736;DHT22;17990;49.548;9.730;2024-02-26T06:48:23;4.90;99.90
16736;DHT22;17990;49.548;9.730;2024-02-26T06:50:50;4.90;99.90
16736;DHT22;17990;49.548;9.730;2024-02-26T06:53:16;5.00;99.90
16736;DHT22;17990;49.548;9.730;2024-02-26T06:55:44;5.10;99.90
16736;DHT22;17990;49.548;9.730;2024-02-26T06:58:11;5.20;99.90
16736;DHT22;17990;49.548;9.730;2024-02-26T07:00:38;5.20;99.90
16736;DHT22;17990;49.548;9.730;2024-02-26T07:03:05;5.30;99.90
16736;DHT22;17990;49.548;9.730;2024-02-26T07:05:31;5.30;99.90
16736;DHT22;17990;49.548;9.730;2024-02-26T07:07:58;5.30;99.90
16736;DHT22;17990;49.548;9.730;2024-02-26T07:10:25;5.30;99.90
16736;DHT22;17990;49.548;9.730;2024-02-26T07:12:53;5.40;99.90
16736;DHT22;17990;49.548;9.730;2024-02-26T07:15:20;5.40;99.90
16736;DHT22;17990;49.548;9.730;2024-02-26T07:17:46;5.30;99.90
16736;DHT22;17990;49.548;9.730;2024-02-26T07:20:15;5.50;99.90
16736;DHT22;17990;49.548;9.730;2024-02-26T07:22:43;5.50;99.90
16736;DHT22;17990;49.548;9.730;2024-02-26T07:25:10;5.50;99.90
16736;DHT22;17990;49.548;9.730;2024-02-26T07:27:38;5.60;99.90
16736;DHT22;17990;49.548;9.730;2024-02-26T07:30:08;5.70;99.90
16736;DHT22;17990;49.548;9.730;2024-02-26T07:32:35;5.70;99.90
16736;DHT22;17990;49.548;9.730;2024-02-26T07:35:02;5.70;99.90
16736;DHT22;17990;49.548;9.730;2024-02-26T07:37:28;5.70;99.90
16736;DHT22;17990;49.548;9.730;2024-02-26T07:39:55;5.80;99.90
16736;DHT22;17990;49.548;9.730;2024-02-26T07:42:22;5.90;99.90
16736;DHT22;17990;49.548;9.730;2024-02-26T07:44:49;6.00;99.90
16736;DHT22;17990;49.548;9.730;2024-02-26T07:47:17;6.10;99.90
16736;DHT22;17990;49.548;9.730;2024-02-26T07:49:43;6.10;99.90
16736;DHT22;17990;49.548;9.730;2024-02-26T07:52:10;6.20;99.90
16736;DHT22;17990;49.548;9.730;2024-02-26T07:54:37;6.30;99.90
16736;DHT22;17990;49.548;9.730;2024-02-26T07:57:04;6.40;99.90
16736;DHT22;17990;49.548;9.730;2024-02-26T07:59:31;6.50;99.90
16736;DHT22;17990;49.548;9.730;2024-02-26T08:01:58;6.50;99.90
16736;DHT22;17990;49.548;9.730;2024-02-26T08:04:27;6.60;99.90
16736;DHT22;17990;49.548;9.730;2024-02-26T08:06:54;6.70;99.90
16736;DHT22;17990;49.548;9.730;2024-02-26T08:09:20;6.70;99.90
16736;DHT22;17990;49.548;9.730;2024-02-26T08:11:47;6.70;99.90
16736;DHT22;17990;49.548;9.730;2024-02-26T08:14:14;6.70;99.90
16736;DHT22;17990;49.548;9.730;2024-02-26T08:16:40;6.60;99.90
16736;DHT22;17990;49.548;9.730;2024-02-26T08:19:07;6.60;99.90
16736;DHT22;17990;49.548;9.730;2024-02-26T08:21:36;6.60;99.90
16736;DHT22;17990;49.548;9.730;2024-02-26T08:24:04;6.70;99.90
16736;DHT22;17990;49.548;9.730;2024-02-26T08:26:30;6.80;99.90
16736;DHT22;17990;49.548;9.730;2024-02-26T08:28:57;6.90;99.90
16736;DHT22;17990;49.548;9.730;2024-02-26T08:31:24;7.10;99.90
16736;DHT22;17990;49.548;9.730;2024-02-26T08:33:51;7.30;99.90
16736;DHT22;17990;49.548;9.730;2024-02-26T08:36:17;7.50;99.90
16736;DHT22;17990;49.548;9.730;2024-02-26T08:38:45;7.70;99.90
16736;DHT22;17990;49.548;9.730;2024-02-26T08:41:12;7.80;99.90
16736;DHT22;17990;49.548;9.730;2024-02-26T08:43:39;8.00;99.90
16736;DHT22;17990;49.548;9.730;2024-02-26T08:46:08;8.10;99.90
16736;DHT22;17990;49.548;9.730;2024-02-26T08:48:36;8.30;99.90
16736;DHT22;17990;49.548;9.730;2024-02-26T08:51:05;8.50;99.90
16736;DHT22;17990;49.548;9.730;2024-02-26T08:53:32;8.60;99.90
16736;DHT22;17990;49.548;9.730;2024-02-26T08:56:00;8.70;99.90
16736;DHT22;17990;49.548;9.730;2024-02-26T08:58:27;8.80;99.90
16736;DHT22;17990;49.548;9.730;2024-02-26T09:00:54;8.80;99.90
16736;DHT22;17990;49.548;9.730;2024-02-26T09:03:20;8.70;99.90
16736;DHT22;17990;49.548;9.730;2024-02-26T09:05:47;8.60;99.90
16736;DHT22;17990;49.548;9.730;2024-02-26T09:08:14;8.50;99.90
16736;DHT22;17990;49.548;9.730;2024-02-26T09:10:42;8.50;99.90
16736;DHT22;17990;49.548;9.730;2024-02-26T09:13:10;8.50;99.90
16736;DHT22;17990;49.548;9.730;2024-02-26T09:15:36;8.50;99.90
16736;DHT22;17990;49.548;9.730;2024-02-26T09:18:03;8.50;99.90
16736;DHT22;17990;49.548;9.730;2024-02-26T09:20:30;8.50;99.90
16736;DHT22;17990;49.548;9.730;2024-02-26T09:22:57;8.50;99.90
16736;DHT22;17990;49.548;9.730;2024-02-26T09:25:23;8.50;99.90
16736;DHT22;17990;49.548;9.730;2024-02-26T09:27:50;8.60;99.90
16736;DHT22;17990;49.548;9.730;2024-02-26T09:30:18;8.60;99.90
16736;DHT22;17990;49.548;9.730;2024-02-26T09:32:46;8.80;99.90
16736;DHT22;17990;49.548;9.730;2024-02-26T09:35:14;8.80;99.90
16736;DHT22;17990;49.548;9.730;2024-02-26T09:37:40;8.70;99.90
16736;DHT22;17990;49.548;9.730;2024-02-26T09:40:09;8.80;99.90
16736;DHT22;17990;49.548;9.730;2024-02-26T09:42:37;9.00;99.90
16736;DHT22;17990;49.548;9.730;2024-02-26T09:45:11;9.10;99.90
16736;DHT22;17990;49.548;9.730;2024-02-26T09:47:40;9.30;99.90
16736;DHT22;17990;49.548;9.730;2024-02-26T09:50:09;9.40;99.90
16736;DHT22;17990;49.548;9.730;2024-02-26T09:52:38;9.50;99.90
16736;DHT22;17990;49.548;9.730;2024-02-26T09:55:05;9.50;99.90
16736;DHT22;17990;49.548;9.730;2024-02-26T09:57:34;9.40;99.90
16736;DHT22;17990;49.548;9.730;2024-02-26T10:00:03;9.40;99.90
16736;DHT22;17990;49.548;9.730;2024-02-26T10:02:33;9.50;99.90
16736;DHT22;17990;49.548;9.730;2024-02-26T10:05:02;9.40;99.90
16736;DHT22;17990;49.548;9.730;2024-02-26T10:07:30;9.40;99.90
16736;DHT22;17990;49.548;9.730;2024-02-26T10:09:58;9.40;99.90
16736;DHT22;17990;49.548;9.730;2024-02-26T10:12:26;9.50;99.90
16736;DHT22;17990;49.548;9.730;2024-02-26T10:14:53;9.60;99.90
16736;DHT22;17990;49.548;9.730;2024-02-26T10:17:20;9.80;99.90
16736;DHT22;17990;49.548;9.730;2024-02-26T10:19:47;9.90;99.90
16736;DHT22;17990;49.548;9.730;2024-02-26T10:22:18;10.20;99.90
16736;DHT22;17990;49.548;9.730;2024-02-26T10:24:47;10.70;99.90
16736;DHT22;17990;49.548;9.730;2024-02-26T10:27:14;11.00;99.90
16736;DHT22;17990;49.548;9.730;2024-02-26T10:29:41;11.40;99.90
16736;DHT22;17990;49.548;9.730;2024-02-26T10:32:09;11.50;99.90
16736;DHT22;17990;49.548;9.730;2024-02-26T10:34:36;11.50;99.90
16736;DHT22;17990;49.548;9.730;2024-02-26T10:37:05;11.40;99.90
16736;DHT22;17990;49.548;9.730;2024-02-26T10:39:33;11.50;99.90
16736;DHT22;17990;49.548;9.730;2024-02-26T10:42:00;11.60;99.90
16736;DHT22;17990;49.548;9.730;2024-02-26T10:44:32;11.50;99.90
16736;DHT22;17990;49.548;9.730;2024-02-26T10:46:58;11.40;99.90
16736;DHT22;17990;49.548;9.730;2024-02-26T10:49:25;11.30;99.90
16736;DHT22;17990;49.548;9.730;2024-02-26T10:51:55;11.30;99.90
16736;DHT22;17990;49.548;9.730;2024-02-26T10:54:24;11.30;99.90
16736;DHT22;17990;49.548;9.730;2024-02-26T10:56:53;11.40;99.90
16736;DHT22;17990;49.548;9.730;2024-02-26T10:59:22;11.40;99.90
16736;DHT22;17990;49.548;9.730;2024-02-26T11:01:49;11.50;99.90
16736;DHT22;17990;49.548;9.730;2024-02-26T11:04:17;11.60;99.90
16736;DHT22;17990;49.548;9.730;2024-02-26T11:06:45;11.80;99.90
16736;DHT22;17990;49.548;9.730;2024-02-26T11:09:13;11.90;99.90
16736;DHT22;17990;49.548;9.730;2024-02-26T11:11:41;12.00;99.90
16736;DHT22;17990;49.548;9.730;2024-02-26T11:14:10;11.70;99.90
16736;DHT22;17990;49.548;9.730;2024-02-26T11:16:39;11.50;99.90
16736;DHT22;17990;49.548;9.730;2024-02-26T11:19:06;11.50;99.90
16736;DHT22;17990;49.548;9.730;2024-02-26T11:21:35;11.50;99.90
16736;DHT22;17990;49.548;9.730;2024-02-26T11:24:07;11.60;99.90
16736;DHT22;17990;49.548;9.730;2024-02-26T11:26:38;11.50;99.90
16736;DHT22;17990;49.548;9.730;2024-02-26T11:29:09;11.30;99.90
16736;DHT22;17990;49.548;9.730;2024-02-26T11:31:38;11.20;99.90
16736;DHT22;17990;49.548;9.730;2024-02-26T11:34:06;11.40;99.90
16736;DHT22;17990;49.548;9.730;2024-02-26T11:36:33;11.60;99.90
16736;DHT22;17990;49.548;9.730;2024-02-26T11:39:00;11.80;99.90
16736;DHT22;17990;49.548;9.730;2024-02-26T11:41:28;11.80;99.90
16736;DHT22;17990;49.548;9.730;2024-02-26T11:44:00;11.80;99.90
16736;DHT22;17990;49.548;9.730;2024-02-26T11:46:30;11.60;99.90
16736;DHT22;17990;49.548;9.730;2024-02-26T11:48:58;11.80;99.90
16736;DHT22;17990;49.548;9.730;2024-02-26T11:51:26;12.00;99.90
16736;DHT22;17990;49.548;9.730;2024-02-26T11:53:54;12.10;99.90
16736;DHT22;17990;49.548;9.730;2024-02-26T11:56:24;12.30;99.90
16736;DHT22;17990;49.548;9.730;2024-02-26T11:59:01;12.80;99.90
16736;DHT22;17990;49.548;9.730;2024-02-26T12:01:42;13.00;99.90
16736;DHT22;17990;49.548;9.730;2024-02-26T12:04:13;13.00;99.90
16736;DHT22;17990;49.548;9.730;2024-02-26T12:06:43;12.90;99.90
16736;DHT22;17990;49.548;9.730;2024-02-26T12:09:11;12.70;99.90
16736;DHT22;17990;49.548;9.730;2024-02-26T12:11:38;12.80;99.90
16736;DHT22;17990;49.548;9.730;2024-02-26T12:14:07;12.90;99.90
16736;DHT22;17990;49.548;9.730;2024-02-26T12:16:35;13.00;99.90
16736;DHT22;17990;49.548;9.730;2024-02-26T12:19:06;12.90;99.90
16736;DHT22;17990;49.548;9.730;2024-02-26T12:21:34;12.70;99.90
16736;DHT22;17990;49.548;9.730;2024-02-26T12:24:11;12.50;99.90
16736;DHT22;17990;49.548;9.730;2024-02-26T12:26:38;12.20;99.90
16736;DHT22;17990;49.548;9.730;2024-02-26T12:29:05;12.30;99.90
16736;DHT22;17990;49.548;9.730;2024-02-26T12:31:32;12.30;99.90
16736;DHT22;17990;49.548;9.730;2024-02-26T12:33:59;12.10;99.90
16736;DHT22;17990;49.548;9.730;2024-02-26T12:36:28;12.10;99.90
16736;DHT22;17990;49.548;9.730;2024-02-26T12:38:54;12.20;99.90
16736;DHT22;17990;49.548;9.730;2024-02-26T12:41:22;12.40;99.90
16736;DHT22;17990;49.548;9.730;2024-02-26T12:43:49;12.60;99.90
16736;DHT22;17990;49.548;9.730;2024-02-26T12:46:16;12.60;99.90
16736;DHT22;17990;49.548;9.730;2024-02-26T12:48:43;12.80;99.90
16736;DHT22;17990;49.548;9.730;2024-02-26T12:51:11;12.80;99.90
16736;DHT22;17990;49.548;9.730;2024-02-26T12:53:40;12.90;99.90
16736;DHT22;17990;49.548;9.730;2024-02-26T12:56:07;13.10;99.90
16736;DHT22;17990;49.548;9.730;2024-02-26T12:58:35;13.10;99.90
16736;DHT22;17990;49.548;9.730;2024-02-26T13:01:03;13.20;99.90
16736;DHT22;17990;49.548;9.730;2024-02-26T13:03:31;13.10;99.90
16736;DHT22;17990;49.548;9.730;2024-02-26T13:05:58;12.80;99.90
16736;DHT22;17990;49.548;9.730;2024-02-26T13:08:25;12.80;99.90
16736;DHT22;17990;49.548;9.730;2024-02-26T13:10:53;13.00;99.90
16736;DHT22;17990;49.548;9.730;2024-02-26T13:13:19;13.10;99.90
16736;DHT22;17990;49.548;9.730;2024-02-26T13:15:46;13.00;99.90
16736;DHT22;17990;49.548;9.730;2024-02-26T13:18:14;13.00;99.90
16736;DHT22;17990;49.548;9.730;2024-02-26T13:20:41;13.00;99.90
16736;DHT22;17990;49.548;9.730;2024-02-26T13:23:11;13.20;99.90
16736;DHT22;17990;49.548;9.730;2024-02-26T13:25:38;13.30;99.90
16736;DHT22;17990;49.548;9.730;2024-02-26T13:28:08;13.40;99.90
16736;DHT22;17990;49.548;9.730;2024-02-26T13:30:35;13.20;99.90
16736;DHT22;17990;49.548;9.730;2024-02-26T13:33:09;13.00;99.90
16736;DHT22;17990;49.548;9.730;2024-02-26T13:35:36;13.10;99.90
16736;DHT22;17990;49.548;9.730;2024-02-26T13:38:04;13.10;99.90
16736;DHT22;17990;49.548;9.730;2024-02-26T13:40:32;13.20;99.90
16736;DHT22;17990;49.548;9.730;2024-02-26T13:42:59;13.20;99.90
16736;DHT22;17990;49.548;9.730;2024-02-26T13:45:27;13.30;99.90
16736;DHT22;17990;49.548;9.730;2024-02-26T13:47:54;13.20;99.90
16736;DHT22;17990;49.548;9.730;2024-02-26T13:50:20;13.50;99.90
16736;DHT22;17990;49.548;9.730;2024-02-26T13:52:48;13.50;99.90
16736;DHT22;17990;49.548;9.730;2024-02-26T13:55:19;13.30;99.90
16736;DHT22;17990;49.548;9.730;2024-02-26T13:57:46;13.10;99.90
16736;DHT22;17990;49.548;9.730;2024-02-26T14:00:14;13.20;99.90
16736;DHT22;17990;49.548;9.730;2024-02-26T14:02:42;13.20;99.90
16736;DHT22;17990;49.548;9.730;2024-02-26T14:05:09;13.10;99.90
16736;DHT22;17990;49.548;9.730;2024-02-26T14:07:36;13.20;99.90
16736;DHT22;17990;49.548;9.730;2024-02-26T14:10:02;13.40;99.90
16736;DHT22;17990;49.548;9.730;2024-02-26T14:12:29;13.50;99.90
16736;DHT22;17990;49.548;9.730;2024-02-26T14:14:56;13.50;99.90
16736;DHT22;17990;49.548;9.730;2024-02-26T14:17:25;13.30;99.90
16736;DHT22;17990;49.548;9.730;2024-02-26T14:19:53;13.20;99.90
16736;DHT22;17990;49.548;9.730;2024-02-26T14:22:20;13.10;99.90
16736;DHT22;17990;49.548;9.730;2024-02-26T14:24:47;13.00;99.90
16736;DHT22;17990;49.548;9.730;2024-02-26T14:27:14;12.80;99.90
16736;DHT22;17990;49.548;9.730;2024-02-26T14:29:41;12.60;99.90
16736;DHT22;17990;49.548;9.730;2024-02-26T14:32:09;12.60;99.90
16736;DHT22;17990;49.548;9.730;2024-02-26T14:34:35;12.70;99.90
16736;DHT22;17990;49.548;9.730;2024-02-26T14:37:04;12.70;99.90
16736;DHT22;17990;49.548;9.730;2024-02-26T14:39:31;12.70;99.90
16736;DHT22;17990;49.548;9.730;2024-02-26T14:41:58;12.80;99.90
16736;DHT22;17990;49.548;9.730;2024-02-26T14:44:25;12.80;99.90
16736;DHT22;17990;49.548;9.730;2024-02-26T14:46:52;12.80;99.90
16736;DHT22;17990;49.548;9.730;2024-02-26T14:49:19;12.70;99.90
16736;DHT22;17990;49.548;9.730;2024-02-26T14:51:46;12.60;99.90
16736;DHT22;17990;49.548;9.730;2024-02-26T14:54:14;12.60;99.90
16736;DHT22;17990;49.548;9.730;2024-02-26T14:56:41;12.70;99.90
16736;DHT22;17990;49.548;9.730;2024-02-26T14:59:07;12.70;99.90
16736;DHT22;17990;49.548;9.730;2024-02-26T15:01:34;12.70;99.90
16736;DHT22;17990;49.548;9.730;2024-02-26T15:04:01;12.70;99.90
16736;DHT22;17990;49.548;9.730;2024-02-26T15:06:29;13.00;99.90
16736;DHT22;17990;49.548;9.730;2024-02-26T15:08:56;13.00;99.90
16736;DHT22;17990;49.548;9.730;2024-02-26T15:11:24;12.80;99.90
16736;DHT22;17990;49.548;9.730;2024-02-26T15:13:50;12.60;99.90
16736;DHT22;17990;49.548;9.730;2024-02-26T15:16:18;12.60;99.90
16736;DHT22;17990;49.548;9.730;2024-02-26T15:18:46;12.60;99.90
16736;DHT22;17990;49.548;9.730;2024-02-26T15:21:13;12.60;99.90
16736;DHT22;17990;49.548;9.730;2024-02-26T15:23:42;12.50;99.90
16736;DHT22;17990;49.548;9.730;2024-02-26T15:26:09;12.50;99.90
16736;DHT22;17990;49.548;9.730;2024-02-26T15:28:37;12.50;99.90
16736;DHT22;17990;49.548;9.730;2024-02-26T15:31:04;12.30;99.90
16736;DHT22;17990;49.548;9.730;2024-02-26T15:33:31;12.10;99.90
16736;DHT22;17990;49.548;9.730;2024-02-26T15:35:57;12.00;99.90
16736;DHT22;17990;49.548;9.730;2024-02-26T15:38:24;12.00;99.90
16736;DHT22;17990;49.548;9.730;2024-02-26T15:40:52;12.00;99.90